createdAt,value
2023-04-01T00:01:15.058Z,1.96
2023-04-01T00:03:43.589Z,1.90
2023-04-01T00:06:13.472Z,1.85
2023-04-01T00:08:40.192Z,1.86
2023-04-01T00:11:09.622Z,1.93
2023-04-01T00:13:36.358Z,1.67
2023-04-01T00:16:03.990Z,1.76
2023-04-01T00:18:33.342Z,1.70
2023-04-01T00:21:01.519Z,1.63
2023-04-01T00:23:28.291Z,1.63
2023-04-01T00:25:55.017Z,1.83
2023-04-01T00:28:21.850Z,1.78
2023-04-01T00:30:48.992Z,1.68
2023-04-01T00:33:16.664Z,1.59
2023-04-01T00:35:43.458Z,1.63
2023-04-01T00:38:14.329Z,1.68
2023-04-01T00:40:43.746Z,1.71
2023-04-01T00:43:13.371Z,1.85
2023-04-01T00:45:41.984Z,1.98
2023-04-01T00:48:13.328Z,1.94
2023-04-01T00:50:43.270Z,1.88
2023-04-01T00:53:12.705Z,1.76
2023-04-01T00:55:44.818Z,1.75
2023-04-01T00:58:17.116Z,1.87
2023-04-01T01:00:44.349Z,1.82
2023-04-01T01:03:11.204Z,1.58
2023-04-01T01:05:53.706Z,1.70
2023-04-01T01:08:31.305Z,1.74
2023-04-01T01:10:58.063Z,1.67
2023-04-01T01:13:31.124Z,1.66
2023-04-01T01:16:02.723Z,1.65
2023-04-01T01:18:36.765Z,1.61
2023-04-01T01:21:25.579Z,1.61
2023-04-01T01:24:19.714Z,1.45
2023-04-01T01:27:01.701Z,1.40
2023-04-01T01:29:56.866Z,1.45
2023-04-01T01:32:39.493Z,1.54
2023-04-01T01:35:28.793Z,1.49
2023-04-01T01:38:00.856Z,1.49
2023-04-01T01:40:29.933Z,1.50
2023-04-01T01:43:02.853Z,1.50
2023-04-01T01:45:31.810Z,1.52
2023-04-01T01:48:01.099Z,1.52
2023-04-01T01:50:29.718Z,1.56
2023-04-01T01:53:06.083Z,1.56
2023-04-01T01:55:35.048Z,1.49
2023-04-01T01:58:06.878Z,1.35
2023-04-01T02:00:34.914Z,1.40
2023-04-01T02:03:02.144Z,1.25
2023-04-01T02:05:32.836Z,1.28
2023-04-01T02:08:05.956Z,1.11
2023-04-01T02:10:38.215Z,0.93
2023-04-01T02:13:11.583Z,0.96
2023-04-01T02:15:43.745Z,0.74
2023-04-01T02:18:12.900Z,0.97
2023-04-01T02:20:42.401Z,0.94
2023-04-01T02:23:11.353Z,0.95
2023-04-01T02:25:39.050Z,0.88
2023-04-01T02:28:08.492Z,0.70
2023-04-01T02:30:39.479Z,0.72
2023-04-01T02:33:06.772Z,0.83
2023-04-01T02:35:36.223Z,0.78
2023-04-01T02:38:07.558Z,0.76
2023-04-01T02:40:46.535Z,0.74
2023-04-01T02:43:13.673Z,0.73
2023-04-01T02:45:40.679Z,0.60
2023-04-01T02:48:07.620Z,0.52
2023-04-01T02:50:34.453Z,0.50
2023-04-01T02:53:01.433Z,0.58
2023-04-01T02:55:29.632Z,0.52
2023-04-01T02:57:56.547Z,0.56
2023-04-01T03:00:23.457Z,0.46
2023-04-01T03:02:50.309Z,0.55
2023-04-01T03:05:17.233Z,0.50
2023-04-01T03:07:44.088Z,0.51
2023-04-01T03:10:11.148Z,0.54
2023-04-01T03:12:40.835Z,0.42
2023-04-01T03:15:10.948Z,0.48
2023-04-01T03:17:38.678Z,0.43
2023-04-01T03:20:06.736Z,0.35
2023-04-01T03:22:33.474Z,0.30
2023-04-01T03:25:00.233Z,0.23
2023-04-01T03:27:26.967Z,0.14
2023-04-01T03:29:55.267Z,0.22
2023-04-01T03:32:22.151Z,0.22
2023-04-01T03:34:49.031Z,0.12
2023-04-01T03:37:15.755Z,0.20
2023-04-01T03:39:44.501Z,0.18
2023-04-01T03:42:11.375Z,0.15
2023-04-01T03:44:38.133Z,0.13
2023-04-01T03:47:07.772Z,0.09
2023-04-01T03:49:34.669Z,0.09
2023-04-01T03:52:01.433Z,0.09
2023-04-01T03:54:28.237Z,0.06
2023-04-01T03:56:55.047Z,0.02
2023-04-01T03:59:21.903Z,0.02
2023-04-01T04:01:48.750Z,0.05
2023-04-01T04:04:16.933Z,0.07
2023-04-01T04:06:43.738Z,0.09
2023-04-01T04:09:10.526Z,0.09
2023-04-01T04:11:37.477Z,0.13
2023-04-01T04:14:04.361Z,0.18
2023-04-01T04:16:31.460Z,0.24
2023-04-01T04:18:58.234Z,0.24
2023-04-01T04:21:26.441Z,0.24
2023-04-01T04:23:53.241Z,0.18
2023-04-01T04:26:20.398Z,0.22
2023-04-01T04:28:47.152Z,0.27
2023-04-01T04:31:19.942Z,0.29
2023-04-01T04:33:46.691Z,0.28
2023-04-01T04:36:13.905Z,0.31
2023-04-01T04:38:42.053Z,0.36
2023-04-01T04:41:10.415Z,0.33
2023-04-01T04:43:37.264Z,0.34
2023-04-01T04:46:07.408Z,0.44
2023-04-01T04:48:34.186Z,0.51
2023-04-01T04:51:00.916Z,0.47
2023-04-01T04:53:27.959Z,0.50
2023-04-01T04:55:56.156Z,0.39
2023-04-01T04:58:23.006Z,0.48
2023-04-01T05:00:49.862Z,0.53
2023-04-01T05:03:16.649Z,0.54
2023-04-01T05:05:50.021Z,0.53
2023-04-01T05:08:16.760Z,0.51
2023-04-01T05:10:43.495Z,0.54
2023-04-01T05:13:11.653Z,0.53
2023-04-01T05:15:38.449Z,0.49
2023-04-01T05:18:05.427Z,0.57
2023-04-01T05:20:32.164Z,0.58
2023-04-01T05:22:59.791Z,0.55
2023-04-01T05:25:26.853Z,0.64
2023-04-01T05:27:53.697Z,0.63
2023-04-01T05:30:22.251Z,0.72
2023-04-01T05:32:49.162Z,0.79
2023-04-01T05:35:16.133Z,0.79
2023-04-01T05:37:42.894Z,0.84
2023-04-01T05:40:10.639Z,0.85
2023-04-01T05:42:38.460Z,0.88
2023-04-01T05:45:06.462Z,0.88
2023-04-01T05:47:34.636Z,0.91
2023-04-01T05:50:01.581Z,0.89
2023-04-01T05:52:28.412Z,0.96
2023-04-01T05:54:55.181Z,0.99
2023-04-01T05:57:22.006Z,1.04
2023-04-01T05:59:48.831Z,1.15
2023-04-01T06:02:18.826Z,1.17
2023-04-01T06:04:47.181Z,1.18
2023-04-01T06:07:14.742Z,1.20
2023-04-01T06:09:41.958Z,1.37
2023-04-01T06:12:41.513Z,1.51
2023-04-01T06:15:21.632Z,1.68
2023-04-01T06:18:05.108Z,2.05
2023-04-01T06:20:44.361Z,2.69
2023-04-01T06:23:19.459Z,3.08
2023-04-01T06:26:02.130Z,3.71
2023-04-01T06:28:48.287Z,3.74
2023-04-01T06:31:27.035Z,3.70
2023-04-01T06:34:16.078Z,3.76
2023-04-01T06:37:07.771Z,3.85
2023-04-01T06:39:50.402Z,3.94
2023-04-01T06:42:40.378Z,3.99
2023-04-01T06:45:21.342Z,4.02
2023-04-01T06:48:02.137Z,3.96
2023-04-01T06:50:36.175Z,3.84
2023-04-01T06:53:10.444Z,3.77
2023-04-01T06:55:42.495Z,3.57
2023-04-01T06:58:17.652Z,3.58
2023-04-01T07:00:47.344Z,3.66
2023-04-01T07:03:21.435Z,3.73
2023-04-01T07:05:48.637Z,3.86
2023-04-01T07:08:22.183Z,3.96
2023-04-01T07:10:54.573Z,4.02
2023-04-01T07:13:25.695Z,4.04
2023-04-01T07:16:10.957Z,4.07
2023-04-01T07:18:43.829Z,4.15
2023-04-01T07:21:23.000Z,4.25
2023-04-01T07:23:53.929Z,4.24
2023-04-01T07:26:22.730Z,4.19
2023-04-01T07:28:49.890Z,4.30
2023-04-01T07:31:44.099Z,4.18
2023-04-01T07:34:18.794Z,4.33
2023-04-01T07:36:53.486Z,4.53
2023-04-01T07:39:36.312Z,4.69
2023-04-01T07:42:10.142Z,4.85
2023-04-01T07:44:44.018Z,4.99
2023-04-01T07:47:23.138Z,5.12
2023-04-01T07:50:00.869Z,5.27
2023-04-01T07:52:36.701Z,5.49
2023-04-01T07:55:14.852Z,5.68
2023-04-01T07:57:50.186Z,5.88
2023-04-01T08:00:21.354Z,6.10
2023-04-01T08:03:08.935Z,5.96
2023-04-01T08:05:47.273Z,6.12
2023-04-01T08:08:25.030Z,6.13
2023-04-01T08:10:58.547Z,6.24
2023-04-01T08:13:34.480Z,5.81
2023-04-01T08:16:10.742Z,5.88
2023-04-01T08:18:46.153Z,6.03
2023-04-01T08:21:17.909Z,5.82
2023-04-01T08:23:47.004Z,5.90
2023-04-01T08:26:24.219Z,5.91
2023-04-01T08:28:58.360Z,5.93
2023-04-01T08:31:33.520Z,6.16
2023-04-01T08:34:06.658Z,6.23
2023-04-01T08:36:37.269Z,5.93
2023-04-01T08:39:09.171Z,6.18
2023-04-01T08:42:01.688Z,6.43
2023-04-01T08:44:52.117Z,6.97
2023-04-01T08:47:35.125Z,7.18
2023-04-01T08:50:29.101Z,7.36
2023-04-01T08:53:04.236Z,7.42
2023-04-01T08:55:41.426Z,7.44
2023-04-01T08:58:43.930Z,7.49
2023-04-01T09:01:23.686Z,7.55
2023-04-01T09:04:07.626Z,7.72
2023-04-01T09:06:45.292Z,8.09
2023-04-01T09:09:48.346Z,8.43
2023-04-01T09:12:38.546Z,8.91
2023-04-01T09:15:36.782Z,9.04
2023-04-01T09:18:40.400Z,9.41
2023-04-01T09:21:35.394Z,9.56
2023-04-01T09:24:45.206Z,9.55
2023-04-01T09:27:20.764Z,9.50
2023-04-01T09:30:25.681Z,8.93
2023-04-01T09:33:16.459Z,9.18
2023-04-01T09:35:47.883Z,9.70
2023-04-01T09:38:22.945Z,9.63
2023-04-01T09:40:56.750Z,9.81
2023-04-01T09:43:28.445Z,9.78
2023-04-01T09:46:10.379Z,9.60
2023-04-01T09:49:05.763Z,9.55
2023-04-01T09:51:40.011Z,9.96
2023-04-01T09:54:14.699Z,10.53
2023-04-01T09:57:07.403Z,11.04
2023-04-01T10:00:19.707Z,11.32
2023-04-01T10:03:31.795Z,11.88
2023-04-01T10:06:47.766Z,12.37
2023-04-01T10:09:54.245Z,12.68
2023-04-01T10:12:50.936Z,12.95
2023-04-01T10:15:45.325Z,13.21
2023-04-01T10:18:35.941Z,13.34
2023-04-01T10:21:24.479Z,12.82
2023-04-01T10:24:05.980Z,12.19
2023-04-01T10:27:03.948Z,12.33
2023-04-01T10:30:09.933Z,12.33
2023-04-01T10:33:31.019Z,12.76
2023-04-01T10:36:26.824Z,13.07
2023-04-01T10:39:39.023Z,13.32
2023-04-01T10:42:46.237Z,13.62
2023-04-01T10:45:40.895Z,13.75
2023-04-01T10:48:40.494Z,13.95
2023-04-01T10:51:26.339Z,14.15
2023-04-01T10:54:37.904Z,14.04
2023-04-01T10:57:17.419Z,14.04
2023-04-01T11:00:12.087Z,13.47
2023-04-01T11:37:43.879Z,12.98
2023-04-01T11:40:25.242Z,13.31
2023-04-01T11:42:58.339Z,13.44
2023-04-01T11:45:35.892Z,13.89
2023-04-01T11:48:23.712Z,14.34
2023-04-01T11:51:05.531Z,14.45
2023-04-01T11:53:45.526Z,14.31
2023-04-01T11:56:33.596Z,14.19
2023-04-01T11:59:24.310Z,14.13
2023-04-01T12:02:04.713Z,14.21
2023-04-01T12:04:55.944Z,13.91
2023-04-01T12:07:34.003Z,14.28
2023-04-01T12:10:16.632Z,14.49
2023-04-01T12:13:00.649Z,14.32
2023-04-01T12:15:38.415Z,14.62
2023-04-01T12:18:17.325Z,14.62
2023-04-01T12:20:51.286Z,14.75
2023-04-01T12:23:47.109Z,14.73
2023-04-01T12:26:44.855Z,14.62
2023-04-01T12:29:35.197Z,14.08
2023-04-01T12:32:17.046Z,13.93
2023-04-01T12:35:03.647Z,13.67
2023-04-01T12:37:37.241Z,12.90
2023-04-01T12:40:25.529Z,12.76
2023-04-01T12:43:04.862Z,13.06
2023-04-01T12:45:33.111Z,13.28
2023-04-01T12:48:33.522Z,13.17
2023-04-01T12:51:27.516Z,12.95
2023-04-01T12:54:30.055Z,12.74
2023-04-01T12:57:10.272Z,12.13
2023-04-01T13:00:03.793Z,11.80
2023-04-01T13:02:46.049Z,11.09
2023-04-01T13:05:35.415Z,10.79
2023-04-01T13:08:27.844Z,10.84
2023-04-01T13:11:09.621Z,10.84
2023-04-01T13:14:21.575Z,10.81
2023-04-01T13:17:09.395Z,10.78
2023-04-01T13:19:58.010Z,10.75
2023-04-01T13:22:41.648Z,10.69
2023-04-01T13:25:22.096Z,10.58
2023-04-01T13:27:53.071Z,10.50
2023-04-01T13:30:27.427Z,10.42
2023-04-01T13:33:02.809Z,10.30
2023-04-01T13:35:40.070Z,10.23
2023-04-01T13:38:25.080Z,10.15
2023-04-01T13:41:04.162Z,10.02
2023-04-01T13:43:35.766Z,9.67
2023-04-01T13:46:36.487Z,9.41
2023-04-01T13:49:28.918Z,9.29
2023-04-01T13:52:32.178Z,9.39
2023-04-01T13:55:34.998Z,9.53
2023-04-01T13:58:39.983Z,9.75
2023-04-01T14:01:14.259Z,9.77
2023-04-01T14:03:55.584Z,10.08
2023-04-01T14:06:32.218Z,10.45
2023-04-01T14:09:31.440Z,10.67
2023-04-01T14:12:05.694Z,10.28
2023-04-01T14:14:49.780Z,10.47
2023-04-01T14:17:36.376Z,10.63
2023-04-01T14:20:21.672Z,10.86
2023-04-01T14:23:04.872Z,11.06
2023-04-01T14:25:51.461Z,11.11
2023-04-01T14:28:29.559Z,11.21
2023-04-01T14:31:17.580Z,11.29
2023-04-01T14:33:51.828Z,11.39
2023-04-01T14:36:39.268Z,11.51
2023-04-01T14:39:28.771Z,11.57
2023-04-01T14:42:19.083Z,11.49
2023-04-01T14:45:16.884Z,11.45
2023-04-01T14:47:48.369Z,11.27
2023-04-01T14:50:18.187Z,11.10
2023-04-01T14:52:52.883Z,10.89
2023-04-01T14:55:30.821Z,10.73
2023-04-01T14:58:09.136Z,10.31
2023-04-01T15:00:48.525Z,10.04
2023-04-01T15:03:22.665Z,9.78
2023-04-01T15:05:55.856Z,9.72
2023-04-01T15:08:24.294Z,9.86
2023-04-01T15:11:23.133Z,9.61
2023-04-01T15:14:09.909Z,9.57
2023-04-01T15:16:48.870Z,9.76
2023-04-01T15:19:24.983Z,9.79
2023-04-01T15:22:28.581Z,9.92
2023-04-01T15:25:06.931Z,10.07
2023-04-01T15:27:45.272Z,10.18
2023-04-01T15:30:33.808Z,10.30
2023-04-01T15:33:23.941Z,10.28
2023-04-01T15:35:58.192Z,10.17
2023-04-01T15:38:34.017Z,10.05
2023-04-01T15:41:12.307Z,9.87
2023-04-01T15:43:44.453Z,9.77
2023-04-01T15:46:37.001Z,9.60
2023-04-01T16:16:25.218Z,8.31
2023-04-01T16:19:09.259Z,8.24
2023-04-01T16:21:42.744Z,8.17
2023-04-01T16:24:21.170Z,7.86
2023-04-01T16:26:54.660Z,7.93
2023-04-01T16:29:28.917Z,7.87
2023-04-01T16:32:01.947Z,7.69
2023-04-01T16:34:35.526Z,7.35
2023-04-01T16:37:08.855Z,7.18
2023-04-01T16:39:43.097Z,7.02
2023-04-01T16:42:17.559Z,6.79
2023-04-01T16:44:53.697Z,6.84
2023-04-01T16:47:29.080Z,6.92
2023-04-01T16:50:06.336Z,6.85
2023-04-01T16:52:49.290Z,6.89
2023-04-01T16:55:19.299Z,6.87
2023-04-01T16:57:51.786Z,6.84
2023-04-01T17:00:27.048Z,6.68
2023-04-01T17:03:05.333Z,6.52
2023-04-01T17:05:46.836Z,6.38
2023-04-01T17:08:23.722Z,6.11
2023-04-01T17:10:54.463Z,5.87
2023-04-01T17:13:36.486Z,5.71
2023-04-01T17:16:18.392Z,5.62
2023-04-01T17:18:52.956Z,5.61
2023-04-01T17:21:27.477Z,5.50
2023-04-01T17:24:04.704Z,5.46
2023-04-01T17:26:38.300Z,5.39
2023-04-01T17:29:12.338Z,5.28
2023-04-01T17:31:47.653Z,5.22
2023-04-01T17:34:31.652Z,5.18
2023-04-01T17:37:10.496Z,5.34
2023-04-01T17:39:54.236Z,5.29
2023-04-01T17:42:31.829Z,5.23
2023-04-01T17:45:04.296Z,5.22
2023-04-01T17:47:48.811Z,5.16
2023-04-01T17:50:23.147Z,5.19
2023-04-01T17:53:00.935Z,5.18
2023-04-01T17:55:45.230Z,5.20
2023-04-01T17:58:19.060Z,5.19
2023-04-01T18:00:57.430Z,5.16
2023-04-01T18:03:45.049Z,5.21
2023-04-01T18:06:18.773Z,5.23
2023-04-01T18:08:59.821Z,5.27
2023-04-01T18:11:35.934Z,5.21
2023-04-01T18:14:29.168Z,5.28
2023-04-01T18:17:14.035Z,5.33
2023-04-01T18:19:54.733Z,5.27
2023-04-01T18:22:29.614Z,5.27
2023-04-01T18:25:06.362Z,5.32
2023-04-01T18:27:38.996Z,5.42
2023-04-01T18:30:14.478Z,5.55
2023-04-01T18:32:49.144Z,5.60
2023-04-01T18:35:22.284Z,5.64
2023-04-01T18:37:56.537Z,5.78
2023-04-01T18:40:26.867Z,5.79
2023-04-01T18:43:10.521Z,5.76
2023-04-01T18:45:42.978Z,5.73
2023-04-01T18:48:23.650Z,5.74
2023-04-01T18:50:56.052Z,5.64
2023-04-01T18:53:30.068Z,5.51
2023-04-01T18:56:00.241Z,5.52
2023-04-01T18:58:34.871Z,5.46
2023-04-01T19:01:29.415Z,5.41
2023-04-01T19:04:05.375Z,5.34
2023-04-01T19:06:35.981Z,5.24
2023-04-01T19:09:25.385Z,5.10
2023-04-01T19:12:14.771Z,5.03
2023-04-01T19:14:55.197Z,4.98
2023-04-01T19:17:34.090Z,5.06
2023-04-01T19:20:10.344Z,5.02
2023-04-01T19:22:57.747Z,4.89
2023-04-01T19:25:31.528Z,4.88
2023-04-01T19:28:08.459Z,4.81
2023-04-01T19:30:52.130Z,4.62
2023-04-01T19:33:29.845Z,4.64
2023-04-01T19:36:04.756Z,4.55
2023-04-01T19:38:38.537Z,4.56
2023-04-01T19:41:20.936Z,4.47
2023-04-01T19:44:00.026Z,4.47
2023-04-01T19:46:33.589Z,4.45
2023-04-01T19:49:12.859Z,4.39
2023-04-01T19:51:48.795Z,4.32
2023-04-01T19:54:30.081Z,4.32
2023-04-01T19:57:07.593Z,4.27
2023-04-01T19:59:41.071Z,4.14
2023-04-01T20:02:34.231Z,4.08
2023-04-01T20:05:17.318Z,3.97
2023-04-01T20:07:49.421Z,3.98
2023-04-01T20:10:23.183Z,3.86
2023-04-01T20:12:58.859Z,3.75
2023-04-01T20:15:33.865Z,3.64
2023-04-01T20:18:04.667Z,3.56
2023-04-01T20:20:33.027Z,3.55
2023-04-01T20:23:08.772Z,3.55
2023-04-01T20:25:44.579Z,3.40
2023-04-01T20:28:21.413Z,3.06
2023-04-01T20:31:07.200Z,3.13
2023-04-01T20:34:06.995Z,3.03
2023-04-01T20:36:41.131Z,2.88
2023-04-01T20:39:28.238Z,2.98
2023-04-01T20:42:20.145Z,2.84
2023-04-01T20:44:56.470Z,2.93
2023-04-01T20:47:45.846Z,2.97
2023-04-01T20:50:25.795Z,2.98
2023-04-01T20:52:58.276Z,2.96
2023-04-01T20:55:51.051Z,2.83
2023-04-01T20:58:25.179Z,2.82
2023-04-01T21:00:58.450Z,2.91
2023-04-01T21:03:39.140Z,2.97
2023-04-01T21:06:32.352Z,3.03
2023-04-01T21:09:19.708Z,3.09
2023-04-01T21:11:57.295Z,3.10
2023-04-01T21:14:55.689Z,3.11
2023-04-01T21:17:39.458Z,3.08
2023-04-01T21:20:24.576Z,3.01
2023-04-01T21:23:09.645Z,2.85
2023-04-01T21:26:00.491Z,2.80
2023-04-01T21:28:38.272Z,2.52
2023-04-01T21:31:23.950Z,2.61
2023-04-01T21:34:17.532Z,2.64
2023-04-01T21:36:58.936Z,2.75
2023-04-01T21:39:49.332Z,2.74
2023-04-01T21:42:26.223Z,2.67
2023-04-01T21:45:09.284Z,2.61
2023-04-01T21:48:15.697Z,2.54
2023-04-01T21:51:16.028Z,2.35
2023-04-01T21:54:32.790Z,2.29
2023-04-01T21:57:53.797Z,2.21
2023-04-01T22:00:22.080Z,2.20
2023-04-01T22:03:27.486Z,2.18
2023-04-01T22:06:01.620Z,2.26
2023-04-01T22:08:43.182Z,2.27
2023-04-01T22:11:20.678Z,2.24
2023-04-01T22:13:50.773Z,2.15
2023-04-01T22:16:24.807Z,2.13
2023-04-01T22:19:00.805Z,2.07
2023-04-01T22:21:34.167Z,1.98
2023-04-01T22:24:08.080Z,1.97
2023-04-01T22:26:40.644Z,1.95
2023-04-01T22:29:11.469Z,1.92
2023-04-01T22:31:45.478Z,1.85
2023-04-01T22:34:18.913Z,1.86
2023-04-01T22:36:52.460Z,1.88
2023-04-01T22:39:41.090Z,1.91
2023-04-01T22:42:25.185Z,1.88
2023-04-01T22:45:03.134Z,1.97
2023-04-01T22:47:41.418Z,2.01
2023-04-01T22:50:15.283Z,1.92
2023-04-01T22:52:44.539Z,2.01
2023-04-01T22:55:16.540Z,1.90
2023-04-01T22:57:50.413Z,1.84
2023-04-01T23:00:23.407Z,1.82
2023-04-01T23:03:05.639Z,1.84
2023-04-01T23:05:34.981Z,1.82
2023-04-01T23:08:26.246Z,1.80
2023-04-01T23:10:56.023Z,1.79
2023-04-01T23:13:30.798Z,1.77
2023-04-01T23:15:58.657Z,1.74
2023-04-01T23:18:34.797Z,1.68
2023-04-01T23:21:10.503Z,1.67
2023-04-01T23:23:47.464Z,1.62
2023-04-01T23:26:19.466Z,1.54
2023-04-01T23:28:50.709Z,1.45
2023-04-01T23:31:28.857Z,1.42
2023-04-01T23:33:57.544Z,1.43
2023-04-01T23:36:24.796Z,1.43
2023-04-01T23:38:52.178Z,1.47
2023-04-01T23:41:23.649Z,1.56
2023-04-01T23:43:56.565Z,1.60
2023-04-01T23:46:23.613Z,1.59
2023-04-01T23:48:51.076Z,1.62
2023-04-01T23:51:21.441Z,1.62
2023-04-01T23:53:57.020Z,1.52
2023-04-01T23:56:24.256Z,1.44
2023-04-01T23:58:53.888Z,1.41
